LVJKD ZZZZ-SADF
Flight info
| Callsign | LVJKD |
|---|---|
| Flight time | N/A |
| Altitude | 27000 |
| Route | PULAS UW22 VALOS DCT VANAR |
| Aircraft | B350/L-SBGRW/S |
Departure
| Time | N/A |
|---|---|
| Airport | ZZZZ |
Arrival
| Time | 2026-04-25 21:15 |
|---|---|
| Airport | San Fernando Airport (SADF) |
| Time | Latitude | Longitude | Altitude | Speed | Heading |
|---|---|---|---|---|---|
| 2026-04-25 19:51 | -38.20647 | -61.76451 | 752 ft | 0 kts | 140° |
| 2026-04-25 20:03 | -38.20655 | -61.76444 | 752 ft | 5 kts | 154° |
| 2026-04-25 20:03 | -38.20712 | -61.76443 | 752 ft | 5 kts | 190° |
| 2026-04-25 20:03 | -38.20724 | -61.76446 | 752 ft | 2 kts | 191° |
| 2026-04-25 20:03 | -38.20753 | -61.76472 | 752 ft | 6 kts | 231° |
| 2026-04-25 20:04 | -38.20780 | -61.76510 | 752 ft | 3 kts | 179° |
| 2026-04-25 20:04 | -38.20782 | -61.76497 | 752 ft | 0 kts | 47° |
| 2026-04-25 20:04 | -38.20777 | -61.76490 | 752 ft | 11 kts | 48° |
| 2026-04-25 20:04 | -38.20509 | -61.76109 | 752 ft | 97 kts | 48° |
| 2026-04-25 20:05 | -38.19990 | -61.75315 | 998 ft | 130 kts | 47° |
| 2026-04-25 20:05 | -38.19408 | -61.74348 | 1464 ft | 144 kts | 51° |
| 2026-04-25 20:05 | -38.18998 | -61.73156 | 1999 ft | 153 kts | 78° |
| 2026-04-25 20:05 | -38.19149 | -61.71834 | 2481 ft | 162 kts | 121° |
| 2026-04-25 20:06 | -38.20048 | -61.70967 | 2897 ft | 170 kts | 163° |
| 2026-04-25 20:06 | -38.21193 | -61.70669 | 3370 ft | 167 kts | 187° |
| 2026-04-25 20:06 | -38.22328 | -61.70802 | 3912 ft | 162 kts | 189° |
| 2026-04-25 20:06 | -38.23394 | -61.71112 | 4448 ft | 157 kts | 209° |
| 2026-04-25 20:07 | -38.24188 | -61.72064 | 4741 ft | 161 kts | 250° |
| 2026-04-25 20:07 | -38.24221 | -61.73377 | 5253 ft | 153 kts | 291° |
| 2026-04-25 20:07 | -38.23579 | -61.74395 | 5763 ft | 150 kts | 332° |
| 2026-04-25 20:07 | -38.22525 | -61.74524 | 6052 ft | 166 kts | 17° |
| 2026-04-25 20:08 | -38.21487 | -61.73685 | 6226 ft | 185 kts | 33° |
| 2026-04-25 20:08 | -38.20443 | -61.72689 | 6604 ft | 188 kts | 35° |
| 2026-04-25 20:08 | -38.19411 | -61.71668 | 7029 ft | 189 kts | 36° |
| 2026-04-25 20:08 | -38.18398 | -61.70642 | 7437 ft | 189 kts | 37° |
| 2026-04-25 20:09 | -38.17365 | -61.69584 | 7841 ft | 190 kts | 37° |
| 2026-04-25 20:09 | -38.16341 | -61.68525 | 8235 ft | 191 kts | 37° |
| 2026-04-25 20:09 | -38.15314 | -61.67460 | 8622 ft | 191 kts | 37° |
| 2026-04-25 20:09 | -38.14282 | -61.66387 | 9005 ft | 192 kts | 37° |
| 2026-04-25 20:10 | -38.13249 | -61.65312 | 9381 ft | 193 kts | 38° |
| 2026-04-25 20:10 | -38.12213 | -61.64233 | 9751 ft | 193 kts | 38° |
| 2026-04-25 20:10 | -38.11176 | -61.63152 | 10115 ft | 194 kts | 38° |
| 2026-04-25 20:10 | -38.10133 | -61.62066 | 10487 ft | 196 kts | 38° |
| 2026-04-25 20:11 | -38.09077 | -61.60966 | 10936 ft | 196 kts | 38° |
| 2026-04-25 20:11 | -38.08026 | -61.59872 | 11383 ft | 196 kts | 38° |
| 2026-04-25 20:11 | -38.06979 | -61.58783 | 11807 ft | 196 kts | 38° |
| 2026-04-25 20:11 | -38.05913 | -61.57673 | 12228 ft | 197 kts | 38° |
| 2026-04-25 20:12 | -38.04849 | -61.56565 | 12639 ft | 198 kts | 38° |
| 2026-04-25 20:12 | -38.03785 | -61.55459 | 13044 ft | 198 kts | 38° |
| 2026-04-25 20:12 | -38.02722 | -61.54354 | 13445 ft | 199 kts | 38° |
| 2026-04-25 20:12 | -38.02369 | -61.53987 | 13576 ft | 199 kts | 38° |
| 2026-04-25 20:13 | -38.00589 | -61.52138 | 14221 ft | 199 kts | 38° |
| 2026-04-25 20:13 | -37.99516 | -61.51030 | 14634 ft | 197 kts | 39° |
| 2026-04-25 20:13 | -37.98473 | -61.49947 | 15098 ft | 193 kts | 40° |
| 2026-04-25 20:13 | -37.97422 | -61.48854 | 15469 ft | 194 kts | 40° |
| 2026-04-25 20:14 | -37.96340 | -61.47846 | 15824 ft | 195 kts | 36° |
| 2026-04-25 20:14 | -37.95227 | -61.46858 | 16189 ft | 196 kts | 35° |
| 2026-04-25 20:14 | -37.94110 | -61.45866 | 16551 ft | 196 kts | 35° |
| 2026-04-25 20:14 | -37.93006 | -61.44888 | 16901 ft | 196 kts | 35° |
| 2026-04-25 20:15 | -37.91895 | -61.43903 | 17248 ft | 196 kts | 35° |
| 2026-04-25 20:15 | -37.90772 | -61.42909 | 17596 ft | 196 kts | 35° |
| 2026-04-25 20:15 | -37.89642 | -61.41910 | 17935 ft | 197 kts | 35° |
| 2026-04-25 20:15 | -37.88522 | -61.40919 | 18266 ft | 197 kts | 35° |
| 2026-04-25 20:16 | -37.87403 | -61.39931 | 18592 ft | 197 kts | 35° |
| 2026-04-25 20:16 | -37.86283 | -61.38941 | 18911 ft | 197 kts | 35° |
| 2026-04-25 20:16 | -37.85155 | -61.37944 | 19234 ft | 197 kts | 35° |
| 2026-04-25 20:16 | -37.84430 | -61.37304 | 19431 ft | 197 kts | 35° |
| 2026-04-25 20:17 | -37.83790 | -61.36739 | 19602 ft | 197 kts | 35° |
| 2026-04-25 20:17 | -37.82655 | -61.35726 | 19855 ft | 201 kts | 33° |
| 2026-04-25 20:17 | -37.81494 | -61.34706 | 20064 ft | 205 kts | 32° |
| 2026-04-25 20:17 | -37.80317 | -61.33670 | 20360 ft | 205 kts | 32° |
| 2026-04-25 20:18 | -37.79147 | -61.32641 | 20646 ft | 204 kts | 32° |
| 2026-04-25 20:18 | -37.77993 | -61.31624 | 20915 ft | 205 kts | 32° |
| 2026-04-25 20:18 | -37.76823 | -61.30593 | 21189 ft | 205 kts | 32° |
| 2026-04-25 20:18 | -37.75658 | -61.29568 | 21466 ft | 205 kts | 32° |
| 2026-04-25 20:19 | -37.74485 | -61.28536 | 21749 ft | 205 kts | 32° |
| 2026-04-25 20:19 | -37.73320 | -61.27511 | 22032 ft | 206 kts | 32° |
| 2026-04-25 20:19 | -37.72157 | -61.26488 | 22318 ft | 206 kts | 32° |
| 2026-04-25 20:19 | -37.70978 | -61.25452 | 22610 ft | 206 kts | 32° |
| 2026-04-25 20:20 | -37.69790 | -61.24407 | 22910 ft | 206 kts | 32° |
| 2026-04-25 20:20 | -37.68612 | -61.23372 | 23210 ft | 207 kts | 32° |
| 2026-04-25 20:20 | -37.67424 | -61.22330 | 23516 ft | 207 kts | 32° |
| 2026-04-25 20:20 | -37.66241 | -61.21291 | 23824 ft | 207 kts | 31° |
| 2026-04-25 20:21 | -37.65052 | -61.20248 | 24137 ft | 207 kts | 31° |
| 2026-04-25 20:21 | -37.63870 | -61.19210 | 24449 ft | 208 kts | 31° |
| 2026-04-25 20:21 | -37.62670 | -61.18158 | 24763 ft | 208 kts | 31° |
| 2026-04-25 20:21 | -37.61474 | -61.17109 | 25077 ft | 209 kts | 31° |
| 2026-04-25 20:22 | -37.60287 | -61.16069 | 25389 ft | 209 kts | 31° |
| 2026-04-25 20:22 | -37.59882 | -61.15715 | 25496 ft | 210 kts | 31° |
| 2026-04-25 20:22 | -37.57873 | -61.13956 | 26024 ft | 210 kts | 31° |
| 2026-04-25 20:22 | -37.56670 | -61.12904 | 26340 ft | 211 kts | 31° |
| 2026-04-25 20:23 | -37.55470 | -61.11853 | 26651 ft | 211 kts | 30° |
| 2026-04-25 20:23 | -37.54266 | -61.10801 | 26933 ft | 213 kts | 30° |
| 2026-04-25 20:23 | -37.53011 | -61.09706 | 26968 ft | 225 kts | 30° |
| 2026-04-25 20:23 | -37.51685 | -61.08548 | 26975 ft | 234 kts | 30° |
| 2026-04-25 20:24 | -37.50325 | -61.07361 | 26970 ft | 242 kts | 30° |
| 2026-04-25 20:24 | -37.48926 | -61.06138 | 26973 ft | 249 kts | 30° |
| 2026-04-25 20:24 | -37.47485 | -61.04881 | 26976 ft | 256 kts | 31° |
| 2026-04-25 20:24 | -37.46005 | -61.03590 | 26980 ft | 262 kts | 30° |
| 2026-04-25 20:25 | -37.44481 | -61.02261 | 26984 ft | 267 kts | 30° |
| 2026-04-25 20:25 | -37.42931 | -61.00911 | 26989 ft | 272 kts | 30° |
| 2026-04-25 20:25 | -37.41362 | -60.99544 | 26991 ft | 277 kts | 30° |
| 2026-04-25 20:25 | -37.39758 | -60.98148 | 26993 ft | 281 kts | 30° |
| 2026-04-25 20:26 | -37.38146 | -60.96746 | 26996 ft | 284 kts | 30° |
| 2026-04-25 20:26 | -37.36500 | -60.95315 | 26998 ft | 288 kts | 30° |
| 2026-04-25 20:26 | -37.34845 | -60.93877 | 26999 ft | 291 kts | 30° |
| 2026-04-25 20:26 | -37.33172 | -60.92425 | 27000 ft | 295 kts | 30° |
| 2026-04-25 20:27 | -37.31485 | -60.90961 | 27000 ft | 298 kts | 31° |
| 2026-04-25 20:27 | -37.29774 | -60.89477 | 26996 ft | 301 kts | 31° |
| 2026-04-25 20:27 | -37.28043 | -60.87976 | 26997 ft | 302 kts | 31° |
| 2026-04-25 20:27 | -37.26306 | -60.86471 | 26996 ft | 304 kts | 31° |
| 2026-04-25 20:28 | -37.24560 | -60.84958 | 26996 ft | 306 kts | 31° |
| 2026-04-25 20:28 | -37.22806 | -60.83441 | 26995 ft | 307 kts | 31° |
| 2026-04-25 20:28 | -37.21048 | -60.81921 | 26995 ft | 308 kts | 31° |
| 2026-04-25 20:28 | -37.19288 | -60.80399 | 26995 ft | 309 kts | 31° |
| 2026-04-25 20:29 | -37.17532 | -60.78881 | 26995 ft | 309 kts | 31° |
| 2026-04-25 20:29 | -37.15743 | -60.77337 | 26995 ft | 310 kts | 31° |
| 2026-04-25 20:29 | -37.13977 | -60.75813 | 26995 ft | 311 kts | 31° |
| 2026-04-25 20:29 | -37.12206 | -60.74286 | 26994 ft | 311 kts | 31° |
| 2026-04-25 20:30 | -37.10416 | -60.72743 | 26995 ft | 311 kts | 31° |
| 2026-04-25 20:30 | -37.08616 | -60.71192 | 26995 ft | 312 kts | 31° |
| 2026-04-25 20:30 | -37.06840 | -60.69664 | 26995 ft | 312 kts | 31° |
| 2026-04-25 20:30 | -37.05041 | -60.68115 | 26995 ft | 312 kts | 31° |
| 2026-04-25 20:31 | -37.03231 | -60.66559 | 26995 ft | 312 kts | 30° |
| 2026-04-25 20:31 | -37.01455 | -60.65033 | 26994 ft | 312 kts | 30° |
| 2026-04-25 20:31 | -36.99641 | -60.63475 | 26994 ft | 312 kts | 30° |
| 2026-04-25 20:31 | -36.97858 | -60.61944 | 26994 ft | 312 kts | 30° |
| 2026-04-25 20:32 | -36.96082 | -60.60421 | 26994 ft | 312 kts | 30° |
| 2026-04-25 20:32 | -36.94280 | -60.58876 | 26994 ft | 312 kts | 30° |
| 2026-04-25 20:32 | -36.92447 | -60.57388 | 26991 ft | 311 kts | 26° |
| 2026-04-25 20:32 | -36.90604 | -60.56020 | 26998 ft | 311 kts | 26° |
| 2026-04-25 20:33 | -36.88746 | -60.54664 | 26998 ft | 312 kts | 26° |
| 2026-04-25 20:33 | -36.86852 | -60.53289 | 26998 ft | 314 kts | 26° |
| 2026-04-25 20:33 | -36.84965 | -60.51924 | 26997 ft | 315 kts | 26° |
| 2026-04-25 20:33 | -36.84336 | -60.51469 | 26997 ft | 315 kts | 26° |
| 2026-04-25 20:34 | -36.81165 | -60.49180 | 26997 ft | 316 kts | 26° |
| 2026-04-25 20:34 | -36.79261 | -60.47807 | 26997 ft | 317 kts | 26° |
| 2026-04-25 20:34 | -36.77358 | -60.46436 | 26996 ft | 318 kts | 26° |
| 2026-04-25 20:34 | -36.75447 | -60.45060 | 26996 ft | 318 kts | 26° |
| 2026-04-25 20:35 | -36.73500 | -60.43658 | 26996 ft | 319 kts | 26° |
| 2026-04-25 20:35 | -36.71574 | -60.42273 | 26996 ft | 319 kts | 26° |
| 2026-04-25 20:35 | -36.69665 | -60.40901 | 26996 ft | 319 kts | 26° |
| 2026-04-25 20:35 | -36.67739 | -60.39517 | 26996 ft | 320 kts | 26° |
| 2026-04-25 20:36 | -36.65811 | -60.38132 | 26996 ft | 320 kts | 26° |
| 2026-04-25 20:36 | -36.63891 | -60.36755 | 26996 ft | 320 kts | 26° |
| 2026-04-25 20:36 | -36.61935 | -60.35352 | 26996 ft | 320 kts | 26° |
| 2026-04-25 20:36 | -36.60393 | -60.34246 | 26993 ft | 321 kts | 25° |
| 2026-04-25 20:37 | -36.58666 | -60.33009 | 26990 ft | 320 kts | 25° |
| 2026-04-25 20:37 | -36.56720 | -60.31615 | 26990 ft | 320 kts | 25° |
| 2026-04-25 20:37 | -36.54781 | -60.30228 | 26990 ft | 320 kts | 25° |
| 2026-04-25 20:37 | -36.52854 | -60.28849 | 26990 ft | 320 kts | 25° |
| 2026-04-25 20:38 | -36.50915 | -60.27464 | 26990 ft | 320 kts | 25° |
| 2026-04-25 20:38 | -36.48975 | -60.26078 | 26990 ft | 320 kts | 25° |
| 2026-04-25 20:38 | -36.47047 | -60.24701 | 26991 ft | 320 kts | 25° |
| 2026-04-25 20:38 | -36.45109 | -60.23318 | 26991 ft | 320 kts | 25° |
| 2026-04-25 20:39 | -36.43170 | -60.21936 | 26991 ft | 320 kts | 25° |
| 2026-04-25 20:39 | -36.41238 | -60.20558 | 26991 ft | 320 kts | 25° |
| 2026-04-25 20:39 | -36.39274 | -60.19159 | 26991 ft | 320 kts | 25° |
| 2026-04-25 20:39 | -36.38640 | -60.18708 | 26991 ft | 320 kts | 25° |
| 2026-04-25 20:40 | -36.35414 | -60.16412 | 26991 ft | 320 kts | 25° |
| 2026-04-25 20:40 | -36.33488 | -60.15043 | 26991 ft | 320 kts | 25° |
| 2026-04-25 20:40 | -36.31545 | -60.13662 | 26991 ft | 320 kts | 25° |
| 2026-04-25 20:40 | -36.29615 | -60.12291 | 26991 ft | 320 kts | 25° |
| 2026-04-25 20:41 | -36.27688 | -60.10923 | 26991 ft | 320 kts | 25° |
| 2026-04-25 20:41 | -36.25762 | -60.09556 | 26991 ft | 320 kts | 25° |
| 2026-04-25 20:41 | -36.23834 | -60.08190 | 26992 ft | 320 kts | 25° |
| 2026-04-25 20:41 | -36.21885 | -60.06808 | 26992 ft | 320 kts | 25° |
| 2026-04-25 20:42 | -36.19951 | -60.05439 | 26992 ft | 320 kts | 25° |
| 2026-04-25 20:42 | -36.18024 | -60.04075 | 26992 ft | 320 kts | 25° |
| 2026-04-25 20:42 | -36.16093 | -60.02708 | 26992 ft | 320 kts | 25° |
| 2026-04-25 20:42 | -36.14148 | -60.01334 | 26992 ft | 320 kts | 25° |
| 2026-04-25 20:43 | -36.12214 | -59.99967 | 26992 ft | 320 kts | 25° |
| 2026-04-25 20:43 | -36.10259 | -59.98586 | 26992 ft | 320 kts | 25° |
| 2026-04-25 20:43 | -36.08345 | -59.97236 | 26992 ft | 320 kts | 25° |
| 2026-04-25 20:43 | -36.06416 | -59.95875 | 26992 ft | 320 kts | 25° |
| 2026-04-25 20:44 | -36.04475 | -59.94506 | 26992 ft | 320 kts | 25° |
| 2026-04-25 20:44 | -36.02532 | -59.93137 | 26992 ft | 320 kts | 25° |
| 2026-04-25 20:44 | -36.00589 | -59.91769 | 26992 ft | 321 kts | 25° |
| 2026-04-25 20:44 | -35.98655 | -59.90408 | 26992 ft | 321 kts | 25° |
| 2026-04-25 20:45 | -35.96721 | -59.89048 | 26993 ft | 321 kts | 25° |
| 2026-04-25 20:45 | -35.94793 | -59.87692 | 26993 ft | 321 kts | 25° |
| 2026-04-25 20:45 | -35.92863 | -59.86337 | 26993 ft | 321 kts | 25° |
| 2026-04-25 20:45 | -35.90911 | -59.84966 | 26993 ft | 321 kts | 25° |
| 2026-04-25 20:46 | -35.88993 | -59.83620 | 26993 ft | 321 kts | 25° |
| 2026-04-25 20:46 | -35.87060 | -59.82264 | 26994 ft | 321 kts | 25° |
| 2026-04-25 20:46 | -35.85164 | -59.80935 | 26994 ft | 321 kts | 25° |
| 2026-04-25 20:46 | -35.83207 | -59.79564 | 26994 ft | 322 kts | 25° |
| 2026-04-25 20:47 | -35.81251 | -59.78195 | 26991 ft | 322 kts | 25° |
| 2026-04-25 20:47 | -35.79309 | -59.76835 | 26987 ft | 322 kts | 25° |
| 2026-04-25 20:47 | -35.77356 | -59.75470 | 26984 ft | 322 kts | 25° |
| 2026-04-25 20:47 | -35.75398 | -59.74101 | 26981 ft | 322 kts | 25° |
| 2026-04-25 20:48 | -35.73463 | -59.72749 | 26976 ft | 322 kts | 25° |
| 2026-04-25 20:48 | -35.71508 | -59.71384 | 26973 ft | 322 kts | 25° |
| 2026-04-25 20:48 | -35.69573 | -59.70035 | 26811 ft | 327 kts | 25° |
| 2026-04-25 20:48 | -35.67583 | -59.68647 | 26642 ft | 329 kts | 25° |
| 2026-04-25 20:49 | -35.65595 | -59.67261 | 26509 ft | 329 kts | 25° |
| 2026-04-25 20:49 | -35.63583 | -59.65859 | 26364 ft | 330 kts | 25° |
| 2026-04-25 20:49 | -35.61581 | -59.64465 | 26221 ft | 331 kts | 25° |
| 2026-04-25 20:49 | -35.59577 | -59.63071 | 26078 ft | 332 kts | 26° |
| 2026-04-25 20:50 | -35.57569 | -59.61674 | 25934 ft | 332 kts | 26° |
| 2026-04-25 20:50 | -35.55555 | -59.60274 | 25790 ft | 333 kts | 26° |
| 2026-04-25 20:50 | -35.53556 | -59.58887 | 25631 ft | 333 kts | 26° |
| 2026-04-25 20:50 | -35.51513 | -59.57468 | 25429 ft | 335 kts | 26° |
| 2026-04-25 20:51 | -35.49487 | -59.56063 | 25156 ft | 339 kts | 26° |
| 2026-04-25 20:51 | -35.47425 | -59.54634 | 24794 ft | 344 kts | 26° |
| 2026-04-25 20:51 | -35.45344 | -59.53191 | 24439 ft | 348 kts | 26° |
| 2026-04-25 20:51 | -35.43216 | -59.51717 | 24076 ft | 350 kts | 26° |
| 2026-04-25 20:52 | -35.41107 | -59.50258 | 23715 ft | 351 kts | 26° |
| 2026-04-25 20:52 | -35.39693 | -59.49279 | 23469 ft | 351 kts | 26° |
| 2026-04-25 20:52 | -35.36855 | -59.47317 | 22975 ft | 350 kts | 27° |
| 2026-04-25 20:52 | -35.34760 | -59.45869 | 22610 ft | 349 kts | 27° |
| 2026-04-25 20:53 | -35.32633 | -59.44401 | 22237 ft | 348 kts | 27° |
| 2026-04-25 20:53 | -35.30523 | -59.42945 | 21867 ft | 347 kts | 27° |
| 2026-04-25 20:53 | -35.28450 | -59.41516 | 21498 ft | 347 kts | 27° |
| 2026-04-25 20:53 | -35.26325 | -59.40051 | 21071 ft | 346 kts | 27° |
| 2026-04-25 20:54 | -35.24244 | -59.38618 | 20654 ft | 345 kts | 27° |
| 2026-04-25 20:54 | -35.22164 | -59.37185 | 20234 ft | 343 kts | 27° |
| 2026-04-25 20:54 | -35.20105 | -59.35769 | 19818 ft | 342 kts | 27° |
| 2026-04-25 20:54 | -35.18023 | -59.34337 | 19394 ft | 341 kts | 27° |
| 2026-04-25 20:55 | -35.15972 | -59.32928 | 18971 ft | 340 kts | 27° |
| 2026-04-25 20:55 | -35.13924 | -59.31522 | 18546 ft | 338 kts | 27° |
| 2026-04-25 20:55 | -35.11866 | -59.30109 | 18119 ft | 337 kts | 27° |
| 2026-04-25 20:55 | -35.09860 | -59.28733 | 17937 ft | 328 kts | 27° |
| 2026-04-25 20:56 | -35.07886 | -59.27379 | 17959 ft | 320 kts | 27° |
| 2026-04-25 20:56 | -35.05963 | -59.26061 | 17955 ft | 315 kts | 27° |
| 2026-04-25 20:56 | -35.04061 | -59.24759 | 17958 ft | 310 kts | 27° |
| 2026-04-25 20:56 | -35.02211 | -59.23491 | 17961 ft | 307 kts | 27° |
| 2026-04-25 20:57 | -35.00336 | -59.22208 | 17962 ft | 305 kts | 26° |
| 2026-04-25 20:57 | -34.98515 | -59.20963 | 17910 ft | 304 kts | 26° |
| 2026-04-25 20:57 | -34.96642 | -59.19684 | 17611 ft | 311 kts | 26° |
| 2026-04-25 20:57 | -34.94749 | -59.18391 | 17296 ft | 312 kts | 26° |
| 2026-04-25 20:58 | -34.92866 | -59.17107 | 16974 ft | 310 kts | 26° |
| 2026-04-25 20:58 | -34.91007 | -59.15839 | 16648 ft | 307 kts | 26° |
| 2026-04-25 20:58 | -34.89158 | -59.14578 | 16307 ft | 304 kts | 26° |
| 2026-04-25 20:58 | -34.87314 | -59.13322 | 15858 ft | 298 kts | 27° |
| 2026-04-25 20:59 | -34.85518 | -59.12098 | 15350 ft | 294 kts | 27° |
| 2026-04-25 20:59 | -34.83754 | -59.10897 | 14850 ft | 291 kts | 27° |
| 2026-04-25 20:59 | -34.82012 | -59.09711 | 14354 ft | 289 kts | 27° |
| 2026-04-25 20:59 | -34.80264 | -59.08522 | 13852 ft | 287 kts | 27° |
| 2026-04-25 21:00 | -34.78523 | -59.07338 | 13351 ft | 286 kts | 28° |
| 2026-04-25 21:00 | -34.77951 | -59.06950 | 13186 ft | 285 kts | 28° |
| 2026-04-25 21:00 | -34.73408 | -59.03865 | 12146 ft | 275 kts | 28° |
| 2026-04-25 21:01 | -34.71738 | -59.02732 | 11810 ft | 271 kts | 28° |
| 2026-04-25 21:01 | -34.70090 | -59.01614 | 11478 ft | 268 kts | 28° |
| 2026-04-25 21:01 | -34.68470 | -59.00516 | 11150 ft | 266 kts | 28° |
| 2026-04-25 21:01 | -34.66851 | -58.99419 | 10821 ft | 265 kts | 28° |
| 2026-04-25 21:02 | -34.65260 | -58.98341 | 10497 ft | 264 kts | 28° |
| 2026-04-25 21:02 | -34.63670 | -58.97264 | 10173 ft | 263 kts | 28° |
| 2026-04-25 21:02 | -34.62062 | -58.96177 | 9846 ft | 263 kts | 28° |
| 2026-04-25 21:02 | -34.60466 | -58.95097 | 9522 ft | 262 kts | 28° |
| 2026-04-25 21:03 | -34.58878 | -58.94023 | 9199 ft | 262 kts | 28° |
| 2026-04-25 21:03 | -34.57279 | -58.92942 | 8872 ft | 262 kts | 28° |
| 2026-04-25 21:03 | -34.55682 | -58.91864 | 8465 ft | 265 kts | 28° |
| 2026-04-25 21:03 | -34.54056 | -58.90766 | 8046 ft | 268 kts | 28° |
| 2026-04-25 21:04 | -34.52420 | -58.89662 | 7627 ft | 270 kts | 28° |
| 2026-04-25 21:04 | -34.50793 | -58.88564 | 7210 ft | 271 kts | 28° |
| 2026-04-25 21:04 | -34.49144 | -58.87452 | 6789 ft | 272 kts | 28° |
| 2026-04-25 21:04 | -34.47481 | -58.86331 | 6366 ft | 273 kts | 28° |
| 2026-04-25 21:05 | -34.45837 | -58.85223 | 5948 ft | 273 kts | 28° |
| 2026-04-25 21:05 | -34.44172 | -58.84102 | 5525 ft | 274 kts | 28° |
| 2026-04-25 21:05 | -34.42506 | -58.82980 | 5103 ft | 274 kts | 28° |
| 2026-04-25 21:05 | -34.40834 | -58.81855 | 4679 ft | 274 kts | 28° |
| 2026-04-25 21:06 | -34.39192 | -58.80751 | 4255 ft | 271 kts | 28° |
| 2026-04-25 21:06 | -34.37545 | -58.79644 | 3827 ft | 269 kts | 28° |
| 2026-04-25 21:06 | -34.35914 | -58.78548 | 3401 ft | 268 kts | 28° |
| 2026-04-25 21:06 | -34.35375 | -58.78186 | 3260 ft | 267 kts | 28° |
| 2026-04-25 21:07 | -34.32909 | -58.76094 | 2889 ft | 255 kts | 54° |
| 2026-04-25 21:07 | -34.32212 | -58.74165 | 2956 ft | 248 kts | 75° |
| 2026-04-25 21:07 | -34.31818 | -58.72149 | 2942 ft | 249 kts | 79° |
| 2026-04-25 21:07 | -34.31474 | -58.70095 | 2946 ft | 246 kts | 79° |
| 2026-04-25 21:08 | -34.31149 | -58.68085 | 2961 ft | 242 kts | 80° |
| 2026-04-25 21:08 | -34.30827 | -58.66074 | 2962 ft | 240 kts | 80° |
| 2026-04-25 21:08 | -34.30511 | -58.64099 | 2963 ft | 239 kts | 80° |
| 2026-04-25 21:08 | -34.30192 | -58.62114 | 2963 ft | 238 kts | 80° |
| 2026-04-25 21:09 | -34.29564 | -58.58202 | 2964 ft | 236 kts | 80° |
| 2026-04-25 21:09 | -34.29253 | -58.56270 | 2965 ft | 235 kts | 80° |
| 2026-04-25 21:09 | -34.28939 | -58.54315 | 2965 ft | 235 kts | 80° |
| 2026-04-25 21:10 | -34.28637 | -58.52375 | 2962 ft | 235 kts | 84° |
| 2026-04-25 21:10 | -34.28930 | -58.50462 | 2958 ft | 231 kts | 120° |
| 2026-04-25 21:10 | -34.29991 | -58.49055 | 2988 ft | 227 kts | 144° |
| 2026-04-25 21:10 | -34.31282 | -58.47955 | 2941 ft | 224 kts | 148° |
| 2026-04-25 21:11 | -34.32573 | -58.46975 | 2727 ft | 218 kts | 155° |
| 2026-04-25 21:11 | -34.34018 | -58.46717 | 2453 ft | 207 kts | 192° |
| 2026-04-25 21:11 | -34.35257 | -58.47430 | 2162 ft | 201 kts | 216° |
| 2026-04-25 21:11 | -34.36340 | -58.48511 | 1952 ft | 197 kts | 221° |
| 2026-04-25 21:12 | -34.37320 | -58.49571 | 1938 ft | 179 kts | 223° |
| 2026-04-25 21:12 | -34.38170 | -58.50541 | 1824 ft | 161 kts | 224° |
| 2026-04-25 21:12 | -34.38979 | -58.51485 | 1627 ft | 160 kts | 224° |
| 2026-04-25 21:12 | -34.39247 | -58.51799 | 1561 ft | 160 kts | 224° |
| 2026-04-25 21:13 | -34.40564 | -58.53344 | 1229 ft | 158 kts | 224° |
| 2026-04-25 21:13 | -34.41324 | -58.54236 | 1067 ft | 146 kts | 224° |
| 2026-04-25 21:13 | -34.42035 | -58.55071 | 841 ft | 137 kts | 224° |
| 2026-04-25 21:13 | -34.42699 | -58.55850 | 652 ft | 127 kts | 224° |
| 2026-04-25 21:14 | -34.43325 | -58.56584 | 486 ft | 121 kts | 224° |
| 2026-04-25 21:14 | -34.43899 | -58.57266 | 380 ft | 111 kts | 226° |
| 2026-04-25 21:14 | -34.44447 | -58.57914 | 202 ft | 109 kts | 223° |
| 2026-04-25 21:14 | -34.44997 | -58.58553 | 34 ft | 104 kts | 224° |
| 2026-04-25 21:15 | -34.45433 | -58.59063 | 12 ft | 60 kts | 224° |
| 2026-04-25 21:15 | -34.45631 | -58.59292 | 12 ft | 18 kts | 226° |
| 2026-04-25 21:15 | -34.45710 | -58.59285 | 12 ft | 11 kts | 147° |
| 2026-04-25 21:15 | -34.45756 | -58.59253 | 12 ft | 5 kts | 152° |
| 2026-04-25 21:16 | -34.45790 | -58.59228 | 12 ft | 0 kts | 149° |
| 2026-04-25 21:17 | -34.45820 | -58.59207 | 12 ft | 7 kts | 151° |
| 2026-04-25 21:18 | -34.45830 | -58.59140 | 12 ft | 13 kts | 62° |
| 2026-04-25 21:18 | -34.45787 | -58.59042 | 12 ft | 1 kts | 63° |
| 2026-04-25 21:18 | -34.45776 | -58.59017 | 12 ft | 7 kts | 64° |
| 2026-04-25 21:18 | -34.45742 | -58.58936 | 12 ft | 13 kts | 62° |
| 2026-04-25 21:19 | -34.45697 | -58.58832 | 12 ft | 10 kts | 63° |
| 2026-04-25 21:19 | -34.45660 | -58.58747 | 12 ft | 8 kts | 62° |
| 2026-04-25 21:19 | -34.45638 | -58.58694 | 12 ft | 7 kts | 63° |
| 2026-04-25 21:19 | -34.45652 | -58.58664 | 12 ft | 3 kts | 158° |
| 2026-04-25 21:20 | -34.45673 | -58.58640 | 12 ft | 3 kts | 83° |
| 2026-04-25 21:20 | -34.45669 | -58.58629 | 12 ft | 0 kts | 62° |
| 2026-04-25 21:20 | -34.45668 | -58.58627 | 12 ft | 0 kts | 61° |